Blue River, Wisconsin
Current Conditions -  °F | °C
As of 12:03 PM on Monday 24 Nov 2014 (Local Time) from KOVS Reporting Station
Light Snow Light Snow  
Wind Chill: 19°   Ceiling: 1600
Heat Index: 30°   Visibility: 1mi
Dew Point: 25°   Wind: 15mph
Humidity: 82%   Direction: 260°W
Pressure: 29.35"   Gusts: 22mph
Location:  43.19°N, 90.57°W
Report Text: KOVS 241803Z AUTO 26013G19KT 1SM -SN FEW010 OVC016 M01/M04 A2935 RMK AO2 P0001 T10111039
Loading
Personal Weather Stations






























Interactive Weather Map New forecast layout! Learn more

10-Day Weather Forecast

Advertisements
Track Severe Weather on mobile